Time;durP1;ratioP1;P1;durP2;ratioP2;P2;SDS_P1;SDS_P2;PMS_P1;PMS_P2;Temp;Humidity;BMP_temperature;BMP_pressure;BME280_temperature;BME280_humidity;BME280_pressure;Samples;Min_cycle;Max_cycle;Signal;HPM_P1;HPM_P2
2022/06/25 09:54:39;;;;;;;;;;;;;;;27.80;53.78;100340.41;3064907;19;1633;-48
2022/06/25 09:55:44;;;;;;;;;;;;;;;27.84;53.80;100348.00;3066028;19;1899;-48
2022/06/25 09:56:46;;;;;;;;;;;;;;;27.91;54.79;100339.75;3065357;19;1411;-48
2022/06/25 09:57:50;;;;;;;;;;;;;;;28.04;54.84;100342.50;3062801;19;1831;-48
2022/06/25 09:58:53;;;;;;;;;;;;;;;28.17;54.97;100339.75;3063398;19;1725;-48
2022/06/25 09:59:58;;;;;;;;;;;;;;;28.27;53.90;100336.59;3063970;19;1468;-48
2022/06/25 10:01:03;;;;;;;;;;;;;;;28.42;54.38;100342.72;3064366;19;1783;-49
2022/06/25 10:02:05;;;;;;;;;;;;;;;28.53;51.60;100342.06;3061605;19;1553;-49
2022/06/25 10:03:11;;;;;;;;;;;;;;;28.57;51.17;100346.06;3064217;19;1782;-49
2022/06/25 10:04:13;;;;;;;;;;;;;;;28.70;51.34;100331.47;3063377;19;1677;-48
2022/06/25 10:05:22;;;;;;;;;;;;;;;28.85;50.63;100340.31;3063421;19;1535;-49
2022/06/25 10:06:24;;;;;;;;;;;;;;;28.94;49.53;100340.91;3063336;19;1742;-49
2022/06/25 10:07:59;;;;;;;;;;;;;;;29.03;50.55;100343.19;3063862;19;1658;-49
2022/06/25 10:08:53;;;;;;;;;;;;;;;29.13;48.94;100339.13;3064309;19;2075;-48
2022/06/25 10:09:55;;;;;;;;;;;;;;;29.15;48.43;100331.50;3063455;19;1537;-49
2022/06/25 10:11:00;;;;;;;;;;;;;;;29.29;49.35;100339.47;3064141;19;1615;-48
2022/06/25 10:12:02;;;;;;;;;;;;;;;29.35;49.40;100334.97;3061551;19;1392;-48
2022/06/25 10:13:06;;;;;;;;;;;;;;;29.36;49.32;100332.00;3062998;19;1534;-48
2022/06/25 10:14:08;;;;;;;;;;;;;;;29.44;49.74;100336.47;3063090;19;1879;-48
2022/06/25 10:15:14;;;;;;;;;;;;;;;29.53;49.63;100337.88;3064555;19;1421;-48
2022/06/25 10:16:19;;;;;;;;;;;;;;;29.58;49.56;100335.31;3063884;19;1559;-48
2022/06/25 10:17:21;;;;;;;;;;;;;;;29.60;48.70;100333.16;3064988;19;1985;-48
2022/06/25 10:18:26;;;;;;;;;;;;;;;29.56;47.51;100331.94;3063945;19;1812;-48
2022/06/25 10:19:27;;;;;;;;;;;;;;;29.58;47.12;100329.81;3063354;19;1440;-48
2022/06/25 10:20:32;;;;;;;;;;;;;;;29.68;46.98;100329.31;3064397;19;1736;-48
2022/06/25 10:21:37;;;;;;;;;;;;;;;29.73;49.10;100337.72;3064068;19;1621;-48
2022/06/25 10:22:39;;;;;;;;;;;;;;;29.80;50.34;100333.03;3059131;19;1806;-48
2022/06/25 10:23:43;;;;;;;;;;;;;;;29.84;50.33;100322.41;3062701;19;1308;-48
2022/06/25 10:24:45;;;;;;;;;;;;;;;29.89;50.45;100336.34;3063395;19;1451;-48
2022/06/25 10:25:50;;;;;;;;;;;;;;;29.93;49.26;100332.06;3061602;19;1989;-48
2022/06/25 10:26:52;;;;;;;;;;;;;;;29.97;49.83;100338.84;3063078;19;1347;-48
2022/06/25 10:28:16;;;;;;;;;;;;;;;30.01;50.72;100340.06;3060011;19;1451;-48
2022/06/25 10:29:25;;;;;;;;;;;;;;;30.10;50.49;100341.47;3061637;19;1384;-48
2022/06/25 10:30:46;;;;;;;;;;;;;;;30.17;50.50;100336.78;3062060;19;1828;-48
2022/06/25 10:31:48;;;;;;;;;;;;;;;30.17;48.63;100334.00;3061413;19;1558;-48
2022/06/25 10:32:52;;;;;;;;;;;;;;;30.20;48.98;100322.53;3059759;19;1343;-48
2022/06/25 10:33:54;;;;;;;;;;;;;;;30.24;48.76;100329.28;3062468;19;1357;-48
2022/06/25 10:35:01;;;;;;;;;;;;;;;30.27;49.39;100328.84;3061841;19;1868;-49
2022/06/25 10:36:06;;;;;;;;;;;;;;;30.28;48.33;100316.75;3064729;19;1531;-49
2022/06/25 10:37:08;;;;;;;;;;;;;;;30.32;48.76;100320.72;3063669;19;1653;-48
2022/06/25 10:38:13;;;;;;;;;;;;;;;30.36;48.27;100321.94;3063477;19;1635;-48
2022/06/25 10:39:33;;;;;;;;;;;;;;;30.40;48.70;100312.16;3062506;19;2106;-48
2022/06/25 10:40:49;;;;;;;;;;;;;;;30.37;48.31;100315.38;3064235;19;1452;-48
2022/06/25 10:43:37;;;;;;;;;;;;;;;30.37;49.04;100315.38;3063388;19;1889;-48
2022/06/25 10:44:42;;;;;;;;;;;;;;;30.39;48.45;100313.25;3063913;19;1599;-48
2022/06/25 10:45:44;;;;;;;;;;;;;;;30.39;47.69;100313.25;3063155;19;1501;-49
2022/06/25 10:46:49;;;;;;;;;;;;;;;30.36;48.43;100316.44;3063740;19;1708;-48
2022/06/25 10:47:54;;;;;;;;;;;;;;;30.30;48.57;100320.13;3063320;19;1314;-49
2022/06/25 10:48:59;;;;;;;;;;;;;;;30.23;48.07;100322.09;3062792;19;1722;-49
2022/06/25 10:50:20;;;;;;;;;;;;;;;30.19;48.30;100309.81;3063676;19;1570;-48
2022/06/25 10:51:34;;;;;;;;;;;;;;;30.19;48.59;100314.53;3063260;19;1392;-48
2022/06/25 10:52:35;;;;;;;;;;;;;;;30.19;47.85;100304.31;3059216;19;1783;-49
2022/06/25 10:53:41;;;;;;;;;;;;;;;30.20;47.68;100316.19;3062610;19;1642;-48
2022/06/25 10:54:45;;;;;;;;;;;;;;;30.21;48.62;100317.88;3062312;19;1853;-48
2022/06/25 10:55:47;;;;;;;;;;;;;;;30.17;49.41;100300.97;3062515;19;1573;-48
2022/06/25 10:56:52;;;;;;;;;;;;;;;30.09;48.81;100293.00;3062653;19;1688;-48
2022/06/25 10:58:09;;;;;;;;;;;;;;;30.15;48.94;100314.13;3062775;19;1655;-48
2022/06/25 10:59:39;;;;;;;;;;;;;;;30.25;49.73;100308.09;3064552;19;1458;-48
2022/06/25 11:00:47;;;;;;;;;;;;;;;30.30;49.67;100300.84;3062171;19;1873;-48
2022/06/25 11:01:58;;;;;;;;;;;;;;;30.29;49.62;100295.56;3062133;19;1670;-48
2022/06/25 11:03:00;;;;;;;;;;;;;;;30.22;48.92;100303.03;3061046;19;1657;-47
2022/06/25 11:04:06;;;;;;;;;;;;;;;30.30;49.92;100300.84;3062045;19;1471;-47
2022/06/25 11:05:17;;;;;;;;;;;;;;;30.34;50.13;100307.56;3061734;19;1569;-47
2022/06/25 11:06:29;;;;;;;;;;;;;;;30.38;49.61;100297.78;3050800;19;1604;-47
2022/06/25 11:07:33;;;;;;;;;;;;;;;30.47;49.36;100291.97;3051586;19;1672;-47
2022/06/25 11:08:36;;;;;;;;;;;;;;;30.51;49.26;100302.31;3050245;19;1613;-47
2022/06/25 11:09:41;;;;;;;;;;;;;;;30.53;48.11;100311.22;3051945;19;1491;-47
2022/06/25 11:10:43;;;;;;;;;;;;;;;30.56;48.50;100312.66;3052240;19;1734;-47
2022/06/25 11:11:48;;;;;;;;;;;;;;;30.47;48.28;100316.75;3051421;19;1582;-47
2022/06/25 11:12:50;;;;;;;;;;;;;;;30.49;47.77;100309.94;3048072;19;1851;-47
2022/06/25 11:13:54;;;;;;;;;;;;;;;30.53;47.87;100310.34;3050763;19;1507;-47
2022/06/25 11:15:10;;;;;;;;;;;;;;;30.53;48.00;100294.69;3051388;19;1866;-47
2022/06/25 11:16:15;;;;;;;;;;;;;;;30.59;49.14;100303.94;3057288;19;961;-47
2022/06/25 11:17:20;;;;;;;;;;;;;;;30.61;48.23;100308.16;3056887;19;1127;-47
2022/06/25 11:18:22;;;;;;;;;;;;;;;30.67;47.83;100307.22;3056603;19;1323;-47
2022/06/25 11:19:27;;;;;;;;;;;;;;;30.70;47.57;100301.25;3058406;19;1112;-47
2022/06/25 11:20:29;;;;;;;;;;;;;;;30.72;47.70;100304.63;3058561;19;1122;-48
2022/06/25 11:21:37;;;;;;;;;;;;;;;30.73;47.02;100300.81;3059874;19;1255;-47
2022/06/25 11:22:48;;;;;;;;;;;;;;;30.82;47.94;100308.75;3058201;19;916;-47
2022/06/25 11:23:50;;;;;;;;;;;;;;;30.85;48.15;100309.13;3058196;19;1598;-47
2022/06/25 11:28:57;;;;;;;;;;;;;;;31.01;48.11;100297.47;3056097;19;1243;-47
2022/06/25 11:30:01;;;;;;;;;;;;;;;31.05;48.93;100304.19;3056443;19;986;-48
2022/06/25 11:31:04;;;;;;;;;;;;;;;31.09;48.16;100297.19;3057039;19;1062;-47
2022/06/25 11:32:10;;;;;;;;;;;;;;;31.11;49.17;100303.31;3058157;19;824;-47
2022/06/25 11:33:12;;;;;;;;;;;;;;;31.14;48.12;100305.59;3057975;19;854;-47
2022/06/25 11:34:22;;;;;;;;;;;;;;;31.14;46.44;100305.59;3057569;19;1446;-47
2022/06/25 11:35:39;;;;;;;;;;;;;;;31.20;46.80;100306.56;3058928;19;1842;-47
2022/06/25 11:36:41;;;;;;;;;;;;;;;31.22;48.38;100287.03;3057953;19;857;-47
2022/06/25 11:37:45;;;;;;;;;;;;;;;31.22;47.46;100304.44;3057982;19;930;-47
2022/06/25 11:38:51;;;;;;;;;;;;;;;31.26;46.67;100304.81;3058154;19;913;-47
2022/06/25 11:39:56;;;;;;;;;;;;;;;31.25;45.67;100300.38;3057604;19;945;-47
2022/06/25 11:40:57;;;;;;;;;;;;;;;31.20;45.87;100297.47;3057715;19;1036;-47
2022/06/25 11:42:02;;;;;;;;;;;;;;;31.19;46.91;100301.28;3057964;19;991;-47
2022/06/25 11:43:10;;;;;;;;;;;;;;;31.19;46.53;100295.78;3057985;19;1214;-48
2022/06/25 11:44:12;;;;;;;;;;;;;;;31.18;46.21;100300.44;3057793;19;940;-47
2022/06/25 11:45:16;;;;;;;;;;;;;;;31.19;45.76;100304.03;3058083;19;1011;-47
2022/06/25 11:46:19;;;;;;;;;;;;;;;31.13;45.46;100295.66;3057814;19;1052;-47
2022/06/25 11:47:24;;;;;;;;;;;;;;;31.07;45.54;100302.06;3058067;19;933;-47
2022/06/25 11:48:27;;;;;;;;;;;;;;;31.01;46.03;100307.66;3056798;19;950;-47
2022/06/25 11:49:37;;;;;;;;;;;;;;;30.97;46.40;100307.28;3056904;19;1690;-48
2022/06/25 11:50:41;;;;;;;;;;;;;;;30.92;46.73;100309.88;3058970;19;1377;-47
2022/06/25 11:51:44;;;;;;;;;;;;;;;30.88;45.89;100303.16;3058850;19;1120;-47
2022/06/25 11:52:49;;;;;;;;;;;;;;;30.91;46.90;100308.22;3057558;19;1787;-47
2022/06/25 11:53:51;;;;;;;;;;;;;;;30.93;46.67;100294.19;3056455;19;1784;-47
2022/06/25 11:54:55;;;;;;;;;;;;;;;30.94;45.88;100307.72;3058746;19;1736;-47
2022/06/25 11:56:04;;;;;;;;;;;;;;;30.91;46.12;100302.72;3057712;19;1842;-47
2022/06/25 11:57:09;;;;;;;;;;;;;;;30.89;45.48;100307.59;3057778;19;969;-47
2022/06/25 11:58:12;;;;;;;;;;;;;;;30.84;45.43;100307.44;3057656;19;874;-48
2022/06/25 11:59:17;;;;;;;;;;;;;;;30.77;45.67;100314.97;3057873;19;980;-47
2022/06/25 12:00:22;;;;;;;;;;;;;;;30.70;45.90;100294.91;3056761;19;968;-47
2022/06/25 12:01:28;;;;;;;;;;;;;;;30.62;46.24;100314.50;3057044;19;910;-47
2022/06/25 12:02:33;;;;;;;;;;;;;;;30.56;46.08;100304.38;3057132;19;981;-47
2022/06/25 12:03:37;;;;;;;;;;;;;;;30.53;46.26;100304.84;3057920;19;892;-47
2022/06/25 12:04:53;;;;;;;;;;;;;;;30.51;46.08;100305.06;3057399;19;853;-47
2022/06/25 12:05:56;;;;;;;;;;;;;;;30.56;47.70;100305.22;3058374;19;1222;-47
2022/06/25 12:07:01;;;;;;;;;;;;;;;30.63;48.65;100294.16;3057437;19;1469;-47
2022/06/25 12:08:03;;;;;;;;;;;;;;;30.71;48.75;100302.09;3057213;19;945;-47
2022/06/25 12:09:08;;;;;;;;;;;;;;;30.79;48.46;100305.38;3056367;19;894;-46
2022/06/25 12:10:10;;;;;;;;;;;;;;;30.86;48.40;100288.78;3056571;19;964;-47
2022/06/25 12:11:15;;;;;;;;;;;;;;;30.94;47.22;100293.94;3057516;19;1139;-47
2022/06/25 12:12:21;;;;;;;;;;;;;;;31.04;47.32;100294.25;3058745;19;1730;-47
2022/06/25 12:13:25;;;;;;;;;;;;;;;31.13;47.40;100301.16;3057500;19;987;-47
2022/06/25 12:14:32;;;;;;;;;;;;;;;31.22;47.17;100300.81;3056722;19;808;-47
2022/06/25 12:15:35;;;;;;;;;;;;;;;31.28;45.95;100297.13;3056312;19;1838;-47
2022/06/25 12:16:43;;;;;;;;;;;;;;;31.35;47.22;100306.16;3056898;19;909;-46
2022/06/25 12:17:49;;;;;;;;;;;;;;;31.40;47.01;100301.59;3054888;19;933;-48
2022/06/25 12:18:54;;;;;;;;;;;;;;;31.48;46.84;100303.19;3057406;19;929;-47
2022/06/25 12:19:58;;;;;;;;;;;;;;;31.59;48.12;100305.16;3057689;19;1265;-47
2022/06/25 12:21:00;;;;;;;;;;;;;;;31.70;48.25;100296.09;3057880;19;1661;-49
2022/06/25 12:22:05;;;;;;;;;;;;;;;31.80;48.58;100296.34;3057649;19;1661;-47
2022/06/25 12:23:07;;;;;;;;;;;;;;;31.91;48.49;100299.34;3058474;19;1206;-46
2022/06/25 12:24:15;;;;;;;;;;;;;;;31.92;46.11;100288.06;3058358;19;1882;-46
2022/06/25 12:25:30;;;;;;;;;;;;;;;31.95;44.96;100300.56;3058692;19;1735;-47
2022/06/25 12:26:35;;;;;;;;;;;;;;;32.00;45.45;100295.97;3058785;19;1782;-47
2022/06/25 12:27:49;;;;;;;;;;;;;;;32.07;45.92;100295.88;3059102;19;1708;-47
2022/06/25 12:28:50;;;;;;;;;;;;;;;32.12;46.14;100293.25;3057618;19;1240;-47
2022/06/25 12:29:56;;;;;;;;;;;;;;;32.18;46.03;100292.31;3056949;19;900;-47
2022/06/25 12:31:07;;;;;;;;;;;;;;;32.27;44.68;100292.78;3057560;19;948;-47
2022/06/25 12:32:11;;;;;;;;;;;;;;;32.32;44.17;100292.91;3057180;19;985;-47
2022/06/25 12:33:13;;;;;;;;;;;;;;;32.38;44.08;100294.69;3057349;19;1032;-47
2022/06/25 12:34:18;;;;;;;;;;;;;;;32.35;43.79;100279.47;3057051;19;953;-47
2022/06/25 12:35:23;;;;;;;;;;;;;;;32.33;43.58;100289.06;3057542;19;885;-48
2022/06/25 12:36:28;;;;;;;;;;;;;;;32.29;43.94;100294.22;3056459;19;1838;-47
2022/06/25 12:37:30;;;;;;;;;;;;;;;32.25;44.41;100289.41;3057557;19;878;-47
2022/06/25 12:38:42;;;;;;;;;;;;;;;32.32;45.70;100293.75;3056826;19;1052;-47
2022/06/25 12:39:47;;;;;;;;;;;;;;;32.37;44.97;100288.31;3057065;19;873;-47
2022/06/25 12:40:50;;;;;;;;;;;;;;;32.38;44.71;100287.22;3057504;19;881;-47
2022/06/25 12:41:54;;;;;;;;;;;;;;;32.38;44.22;100297.44;3057196;19;1251;-47
2022/06/25 12:43:05;;;;;;;;;;;;;;;32.37;44.14;100296.59;3053898;19;1539;-47
2022/06/25 12:45:21;;;;;;;;;;;;;;;32.33;44.52;100292.66;3069572;19;1342;-46
2022/06/25 12:46:23;;;;;;;;;;;;;;;32.31;45.39;100302.25;3070337;19;1011;-46
2022/06/25 12:47:28;;;;;;;;;;;;;;;32.29;45.07;100294.22;3070388;19;1009;-46
2022/06/25 12:48:30;;;;;;;;;;;;;;;32.29;45.53;100298.91;3071136;19;878;-46
2022/06/25 12:49:44;;;;;;;;;;;;;;;32.21;44.52;100286.31;3071132;19;881;-46
2022/06/25 12:50:49;;;;;;;;;;;;;;;32.20;44.44;100301.19;3071151;19;1035;-45
2022/06/25 12:51:51;;;;;;;;;;;;;;;32.18;45.27;100297.81;3071870;19;1102;-46
2022/06/25 12:52:55;;;;;;;;;;;;;;;32.19;44.58;100289.31;3068065;19;1207;-47
2022/06/25 12:53:57;;;;;;;;;;;;;;;32.20;44.80;100295.66;3072450;19;1294;-46
2022/06/25 12:55:02;;;;;;;;;;;;;;;32.26;45.12;100297.44;3070561;19;1724;-48
2022/06/25 12:56:04;;;;;;;;;;;;;;;32.32;44.64;100290.13;3072435;19;1043;-49
2022/06/25 12:57:09;;;;;;;;;;;;;;;32.35;44.42;100293.28;3070503;19;1314;-48
2022/06/25 12:58:14;;;;;;;;;;;;;;;32.38;44.74;100295.53;3072423;19;1625;-48
2022/06/25 12:59:16;;;;;;;;;;;;;;;32.45;44.83;100290.72;3070529;19;1248;-48
2022/06/25 13:00:23;;;;;;;;;;;;;;;32.49;44.47;100289.13;3070905;19;1103;-49
2022/06/25 13:01:26;;;;;;;;;;;;;;;32.52;44.29;100293.34;3070972;19;1714;-48
2022/06/25 13:02:31;;;;;;;;;;;;;;;32.58;43.95;100286.03;3071109;19;893;-49
2022/06/25 13:03:36;;;;;;;;;;;;;;;32.60;44.82;100289.38;3069760;19;980;-50
2022/06/25 13:04:38;;;;;;;;;;;;;;;32.68;45.45;100286.22;3069660;19;1854;-48
2022/06/25 13:05:43;;;;;;;;;;;;;;;32.75;45.77;100282.25;3070861;19;903;-48
2022/06/25 13:06:45;;;;;;;;;;;;;;;32.78;45.70;100278.19;3070760;19;866;-48
2022/06/25 13:07:58;;;;;;;;;;;;;;;32.83;45.56;100281.06;3070560;19;902;-49
2022/06/25 13:09:00;;;;;;;;;;;;;;;32.90;44.42;100284.50;3070623;19;794;-49
2022/06/25 13:10:05;;;;;;;;;;;;;;;32.92;45.30;100282.34;3070654;19;1705;-48
2022/06/25 13:11:15;;;;;;;;;;;;;;;32.93;44.37;100278.50;3070621;19;1051;-48
2022/06/25 13:12:19;;;;;;;;;;;;;;;32.92;44.10;100282.34;3071866;19;1711;-48
2022/06/25 13:13:21;;;;;;;;;;;;;;;32.88;44.98;100281.16;3070495;19;1024;-48
2022/06/25 13:14:26;;;;;;;;;;;;;;;32.84;43.63;100291.03;3070897;19;1800;-48
2022/06/25 13:15:30;;;;;;;;;;;;;;;32.78;43.66;100289.25;3070595;19;1281;-48
2022/06/25 13:16:32;;;;;;;;;;;;;;;32.75;43.71;100292.47;3071285;19;798;-48
2022/06/25 13:17:36;;;;;;;;;;;;;;;32.72;44.03;100291.06;3070267;19;957;-48
2022/06/25 13:18:40;;;;;;;;;;;;;;;32.71;43.36;100288.50;3070777;19;1409;-48
2022/06/25 13:19:45;;;;;;;;;;;;;;;32.73;43.46;100294.66;3070646;19;944;-48
2022/06/25 13:20:47;;;;;;;;;;;;;;;32.75;43.48;100293.31;3070838;19;1369;-48
2022/06/25 13:21:51;;;;;;;;;;;;;;;32.73;44.16;100294.66;3069920;19;1327;-48
2022/06/25 13:22:56;;;;;;;;;;;;;;;32.72;44.72;100287.47;3069872;19;886;-48
2022/06/25 13:23:58;;;;;;;;;;;;;;;32.68;44.41;100287.06;3070435;19;977;-48
2022/06/25 13:25:02;;;;;;;;;;;;;;;32.66;44.62;100288.41;3070316;19;1846;-47
2022/06/25 13:26:04;;;;;;;;;;;;;;;32.63;44.32;100291.63;3070497;19;999;-48
2022/06/25 13:27:08;;;;;;;;;;;;;;;32.59;44.93;100293.22;3070580;19;973;-48
2022/06/25 13:28:11;;;;;;;;;;;;;;;32.53;44.74;100295.88;3070190;19;968;-47
2022/06/25 13:29:15;;;;;;;;;;;;;;;32.51;44.96;100292.50;3070508;19;943;-47
2022/06/25 13:30:17;;;;;;;;;;;;;;;32.50;44.01;100290.81;3070281;19;1026;-48
2022/06/25 13:31:41;;;;;;;;;;;;;;;32.50;43.86;100290.81;3070405;19;888;-48
2022/06/25 13:32:45;;;;;;;;;;;;;;;32.47;43.91;100287.72;3070292;19;1236;-48
2022/06/25 13:33:49;;;;;;;;;;;;;;;32.44;43.74;100289.03;3070115;19;1204;-47
2022/06/25 13:34:53;;;;;;;;;;;;;;;32.44;43.63;100290.97;3071846;19;1290;-47
2022/06/25 13:35:59;;;;;;;;;;;;;;;32.41;43.58;100285.91;3070438;19;1012;-48
2022/06/25 13:37:01;;;;;;;;;;;;;;;32.37;42.21;100291.06;3070443;19;920;-48
2022/06/25 13:38:05;;;;;;;;;;;;;;;32.34;42.54;100286.06;3070349;19;987;-48
2022/06/25 13:39:08;;;;;;;;;;;;;;;32.33;44.06;100292.66;3070537;19;923;-48
2022/06/25 13:40:12;;;;;;;;;;;;;;;32.28;43.59;100281.50;3069999;19;975;-48
2022/06/25 13:41:14;;;;;;;;;;;;;;;32.22;42.96;100284.38;3070293;19;977;-47
2022/06/25 13:42:19;;;;;;;;;;;;;;;32.20;43.15;100282.72;3070076;19;858;-49
2022/06/25 13:43:21;;;;;;;;;;;;;;;32.12;41.37;100287.72;3069672;19;1304;-48
2022/06/25 13:44:25;;;;;;;;;;;;;;;32.14;41.51;100280.03;3068815;19;1183;-48
2022/06/25 13:45:27;;;;;;;;;;;;;;;32.09;42.09;100271.63;3068743;19;1842;-48
2022/06/25 13:46:32;;;;;;;;;;;;;;;32.09;43.71;100278.00;3070234;19;1032;-48
2022/06/25 13:47:36;;;;;;;;;;;;;;;32.07;45.03;100279.31;3070537;19;841;-48
2022/06/25 13:48:40;;;;;;;;;;;;;;;32.07;44.59;100284.84;3070072;19;1225;-48
2022/06/25 13:49:45;;;;;;;;;;;;;;;32.04;44.56;100279.78;3070315;19;953;-48
2022/06/25 13:50:50;;;;;;;;;;;;;;;32.03;44.28;100278.94;3070179;19;996;-48
2022/06/25 13:51:55;;;;;;;;;;;;;;;31.96;44.14;100272.72;3070294;19;829;-48
2022/06/25 13:52:57;;;;;;;;;;;;;;;31.96;45.13;100277.38;3069080;19;949;-48
2022/06/25 13:54:02;;;;;;;;;;;;;;;31.97;45.78;100276.31;3069774;19;881;-49
2022/06/25 13:55:04;;;;;;;;;;;;;;;31.98;45.88;100275.25;3069850;19;976;-49
2022/06/25 13:56:08;;;;;;;;;;;;;;;32.03;45.91;100283.63;3064489;19;1043;-48
2022/06/25 13:57:10;;;;;;;;;;;;;;;32.02;45.42;100284.69;3058051;19;869;-48
2022/06/25 13:58:15;;;;;;;;;;;;;;;32.04;44.60;100275.09;3058653;19;940;-47
2022/06/25 13:59:17;;;;;;;;;;;;;;;32.04;44.66;100282.53;3058150;19;984;-48
2022/06/25 14:00:21;;;;;;;;;;;;;;;32.01;44.78;100275.56;3058132;19;1051;-48
2022/06/25 14:01:23;;;;;;;;;;;;;;;31.99;45.21;100276.91;3058049;19;999;-48
2022/06/25 14:02:27;;;;;;;;;;;;;;;31.97;44.14;100277.16;3058696;19;881;-48
2022/06/25 14:03:29;;;;;;;;;;;;;;;31.99;44.32;100279.69;3057994;19;893;-48
2022/06/25 14:04:40;;;;;;;;;;;;;;;31.95;44.02;100272.94;3058354;19;1262;-48
2022/06/25 14:05:42;;;;;;;;;;;;;;;31.94;43.59;100274.88;3056558;19;1906;-48
2022/06/25 14:06:46;;;;;;;;;;;;;;;31.94;43.90;100279.53;3058185;19;1681;-48
2022/06/25 14:07:48;;;;;;;;;;;;;;;31.96;44.58;100277.38;3058338;19;2197;-48
2022/06/25 14:08:54;;;;;;;;;;;;;;;31.87;44.70;100270.56;3057488;19;976;-48
2022/06/25 14:09:55;;;;;;;;;;;;;;;31.91;46.21;100277.25;3057955;19;1672;-48
2022/06/25 14:11:00;;;;;;;;;;;;;;;31.92;46.38;100270.66;3053907;19;1772;-48
2022/06/25 14:12:02;;;;;;;;;;;;;;;31.92;46.83;100276.19;3050431;19;1646;-49
2022/06/25 14:13:06;;;;;;;;;;;;;;;31.93;46.17;100272.34;3052091;19;2063;-49
2022/06/25 14:14:08;;;;;;;;;;;;;;;31.93;46.25;100278.69;3051065;19;1625;-48
2022/06/25 14:15:13;;;;;;;;;;;;;;;31.93;44.82;100273.19;3051642;19;1644;-48
2022/06/25 14:16:15;;;;;;;;;;;;;;;31.95;45.46;100272.94;3051060;19;1245;-48
2022/06/25 14:17:21;;;;;;;;;;;;;;;31.97;45.80;100276.31;3047548;19;1716;-48
2022/06/25 14:18:23;;;;;;;;;;;;;;;31.97;45.13;100270.78;3050721;19;1914;-48
2022/06/25 14:19:28;;;;;;;;;;;;;;;31.99;45.91;100271.41;3051871;19;1491;-49
2022/06/25 14:20:30;;;;;;;;;;;;;;;32.00;45.35;100262.03;3050374;19;1635;-48
2022/06/25 14:21:34;;;;;;;;;;;;;;;32.03;45.29;100267.06;3051280;19;1431;-48
2022/06/25 14:22:36;;;;;;;;;;;;;;;32.01;45.75;100270.06;3051970;19;1366;-48
2022/06/25 14:23:41;;;;;;;;;;;;;;;32.00;45.85;100262.84;3049796;19;1448;-48
2022/06/25 14:26:02;;;;;;;;;;;;;;;31.99;44.40;100269.47;3050358;19;1869;-48
2022/06/25 14:27:05;;;;;;;;;;;;;;;32.00;44.41;100267.56;3055243;19;1359;-53
2022/06/25 14:28:09;;;;;;;;;;;;;;;31.99;44.10;100266.72;3058263;19;1272;-48
2022/06/25 14:29:14;;;;;;;;;;;;;;;32.00;44.85;100273.09;3059113;19;1217;-48
2022/06/25 14:30:15;;;;;;;;;;;;;;;31.97;44.61;100255.06;3057515;19;1182;-48
2022/06/25 14:31:20;;;;;;;;;;;;;;;31.99;44.58;100266.72;3058620;19;1256;-48
2022/06/25 14:32:22;;;;;;;;;;;;;;;32.01;44.80;100263.69;3057129;19;930;-49
2022/06/25 14:33:27;;;;;;;;;;;;;;;32.01;44.72;100269.22;3057079;19;945;-48
2022/06/25 14:34:32;;;;;;;;;;;;;;;32.02;44.51;100276.41;3057267;19;1073;-49
2022/06/25 14:35:36;;;;;;;;;;;;;;;32.03;45.12;100261.53;3058682;19;1209;-49
2022/06/25 14:43:10;;;;;;;;;;;;;;;32.27;45.98;100257.72;3056985;19;909;-48
2022/06/25 14:44:12;;;;;;;;;;;;;;;32.33;46.41;100262.28;3055209;19;1411;-49
2022/06/25 14:45:17;;;;;;;;;;;;;;;32.39;46.02;100258.53;3054707;19;972;-49
2022/06/25 14:46:21;;;;;;;;;;;;;;;32.40;44.62;100256.63;3054937;19;1852;-49
2022/06/25 14:47:23;;;;;;;;;;;;;;;32.43;44.10;100251.44;3055899;19;1454;-49
2022/06/25 14:48:28;;;;;;;;;;;;;;;32.47;43.91;100252.66;3056513;19;1384;-49
2022/06/25 14:49:29;;;;;;;;;;;;;;;32.47;43.81;100255.41;3056149;19;1594;-48
2022/06/25 14:50:34;;;;;;;;;;;;;;;32.52;44.12;100260.19;3055302;19;833;-49
2022/06/25 14:51:38;;;;;;;;;;;;;;;32.58;44.54;100252.88;3057401;19;957;-49
2022/06/25 14:52:40;;;;;;;;;;;;;;;32.59;43.40;100255.38;3058040;19;1405;-49
2022/06/25 14:53:45;;;;;;;;;;;;;;;32.61;43.15;100263.41;3057349;19;847;-49
2022/06/25 14:54:47;;;;;;;;;;;;;;;32.66;43.85;100249.72;3057952;19;794;-49
2022/06/25 14:55:53;;;;;;;;;;;;;;;32.71;43.82;100259.00;3057172;19;994;-49
2022/06/25 14:56:55;;;;;;;;;;;;;;;32.75;43.87;100259.31;3057851;19;1756;-49
2022/06/25 14:58:00;;;;;;;;;;;;;;;32.80;43.80;100256.66;3018455;19;12194;-48
2022/06/25 14:59:04;;;;;;;;;;;;;;;32.82;43.84;100260.88;3057065;19;1883;-49
2022/06/25 15:00:07;;;;;;;;;;;;;;;32.81;43.91;100253.66;3056900;19;878;-49
2022/06/25 15:01:12;;;;;;;;;;;;;;;32.76;43.34;100261.84;3056955;19;1653;-49
2022/06/25 15:02:14;;;;;;;;;;;;;;;32.72;44.41;100260.66;3057119;19;993;-49
2022/06/25 15:03:18;;;;;;;;;;;;;;;32.75;44.00;100253.78;3056829;19;901;-48
2022/06/25 15:04:20;;;;;;;;;;;;;;;32.81;43.66;100252.81;3056979;19;893;-48
2022/06/25 15:05:27;;;;;;;;;;;;;;;32.85;43.89;100257.59;3057330;19;924;-48
2022/06/25 15:06:29;;;;;;;;;;;;;;;32.81;45.41;100258.34;3057233;19;1842;-48
2022/06/25 15:07:34;;;;;;;;;;;;;;;32.83;45.82;100256.19;3056951;19;896;-48
2022/06/25 15:08:36;;;;;;;;;;;;;;;32.62;45.47;100245.75;3055579;19;1079;-49
2022/06/25 15:09:41;;;;;;;;;;;;;;;32.62;44.94;100249.34;3055254;19;1166;-48
2022/06/25 15:10:43;;;;;;;;;;;;;;;32.59;44.53;100260.06;3056692;19;899;-49
2022/06/25 15:11:47;;;;;;;;;;;;;;;32.56;44.98;100248.41;3055342;19;881;-49
2022/06/25 15:12:49;;;;;;;;;;;;;;;32.47;45.96;100252.66;3057179;19;1358;-48
2022/06/25 15:13:53;;;;;;;;;;;;;;;32.37;44.88;100246.88;3057210;19;917;-49
2022/06/25 15:14:55;;;;;;;;;;;;;;;32.39;44.92;100255.78;3057677;19;936;-49
2022/06/25 15:16:00;;;;;;;;;;;;;;;32.28;45.80;100259.41;3057036;19;850;-48
2022/06/25 15:17:02;;;;;;;;;;;;;;;32.23;46.61;100245.50;3057576;19;933;-49
2022/06/25 15:18:06;;;;;;;;;;;;;;;32.10;46.18;100251.22;3056658;19;1027;-49
2022/06/25 15:19:08;;;;;;;;;;;;;;;32.00;46.18;100245.47;3057310;19;973;-48
2022/06/25 15:20:13;;;;;;;;;;;;;;;32.02;46.01;100251.56;3056812;19;878;-48
2022/06/25 15:21:15;;;;;;;;;;;;;;;31.91;45.81;100257.94;3057539;19;924;-48
2022/06/25 15:22:19;;;;;;;;;;;;;;;31.90;45.76;100242.44;3057157;19;920;-48
2022/06/25 15:23:24;;;;;;;;;;;;;;;31.87;45.83;100257.59;3057216;19;948;-48
2022/06/25 15:24:26;;;;;;;;;;;;;;;31.77;45.48;100255.41;3057214;19;913;-49
2022/06/25 15:25:36;;;;;;;;;;;;;;;31.79;45.91;100250.50;3057085;19;984;-48
2022/06/25 15:26:38;;;;;;;;;;;;;;;31.79;46.13;100249.66;3056953;19;1848;-48
2022/06/25 15:27:43;;;;;;;;;;;;;;;31.74;46.49;100247.63;3057388;19;912;-48
2022/06/25 15:28:45;;;;;;;;;;;;;;;31.58;46.22;100240.00;3056863;19;925;-49
2022/06/25 15:29:49;;;;;;;;;;;;;;;31.52;45.97;100249.22;3057035;19;1297;-48
2022/06/25 15:30:51;;;;;;;;;;;;;;;31.43;44.93;100248.72;3056653;19;1096;-49
2022/06/25 15:31:56;;;;;;;;;;;;;;;31.40;46.66;100257.47;3057118;19;1003;-48
2022/06/25 15:32:58;;;;;;;;;;;;;;;31.39;47.08;100242.03;3056735;19;1193;-48
2022/06/25 15:34:02;;;;;;;;;;;;;;;31.35;46.62;100243.56;3057126;19;956;-48
2022/06/25 15:35:04;;;;;;;;;;;;;;;31.28;46.91;100242.81;3055918;19;945;-48
2022/06/25 15:36:09;;;;;;;;;;;;;;;31.25;47.04;100253.50;3056419;19;976;-48
2022/06/25 15:37:10;;;;;;;;;;;;;;;31.21;46.63;100246.75;3056927;19;937;-48
2022/06/25 15:38:15;;;;;;;;;;;;;;;31.16;46.30;100255.72;3057179;19;965;-48
2022/06/25 15:39:17;;;;;;;;;;;;;;;31.04;46.18;100244.63;3056766;19;961;-48
2022/06/25 15:40:22;;;;;;;;;;;;;;;31.07;46.57;100252.44;3057107;19;798;-48
2022/06/25 15:41:24;;;;;;;;;;;;;;;30.99;46.52;100250.00;3056865;19;944;-48
2022/06/25 15:42:29;;;;;;;;;;;;;;;30.94;47.03;100247.09;3056287;19;991;-48
2022/06/25 15:43:31;;;;;;;;;;;;;;;30.90;47.48;100245.91;3056039;19;897;-48
2022/06/25 15:44:36;;;;;;;;;;;;;;;30.93;47.94;100239.91;3056577;19;1466;-49
2022/06/25 15:45:40;;;;;;;;;;;;;;;30.95;47.44;100243.28;3056774;19;944;-48
2022/06/25 15:46:42;;;;;;;;;;;;;;;30.99;46.67;100244.50;3057199;19;897;-48
2022/06/25 15:47:46;;;;;;;;;;;;;;;30.95;46.68;100237.75;3055860;19;1861;-48